Time;durP1;ratioP1;P1;durP2;ratioP2;P2;SDS_P1;SDS_P2;PMS_P1;PMS_P2;Temp;Humidity;BMP_temperature;BMP_pressure;BME280_temperature;BME280_humidity;BME280_pressure;Samples;Min_cycle;Max_cycle;Signal;HPM_P1;HPM_P2
2022/07/14 00:01:22;;;;;;;19.38;6.28;;;11.20;48.70;;;;;;5057048;28;20051;-27
2022/07/14 00:03:48;;;;;;;23.42;7.03;;;11.20;59.30;;;;;;5053892;28;20033;-27
2022/07/14 00:06:14;;;;;;;17.67;6.53;;;11.20;74.90;;;;;;5053864;28;20052;-27
2022/07/14 00:08:43;;;;;;;23.90;6.93;;;11.20;91.70;;;;;;5053206;28;20041;-28
2022/07/14 00:11:10;;;;;;;15.27;5.75;;;11.20;90.30;;;;;;5053846;28;20041;-27
2022/07/14 00:13:36;;;;;;;18.25;5.72;;;11.20;90.40;;;;;;5057546;28;20041;-28
2022/07/14 00:16:02;;;;;;;17.17;6.78;;;11.20;79.00;;;;;;5053212;28;20395;-27
2022/07/14 00:18:27;;;;;;;20.58;6.55;;;11.20;69.50;;;;;;5052838;28;20474;-27
2022/07/14 00:20:53;;;;;;;17.73;6.13;;;11.10;68.50;;;;;;5067827;28;20115;-28
2022/07/14 00:23:24;;;;;;;19.27;6.35;;;11.20;79.80;;;;;;5054112;28;20049;-28
2022/07/14 00:25:50;;;;;;;19.88;6.53;;;11.20;97.10;;;;;;5053648;28;20045;-27
2022/07/14 00:28:16;;;;;;;22.92;6.47;;;11.30;99.90;;;;;;5052530;28;20475;-27
2022/07/14 00:30:42;;;;;;;16.85;6.18;;;11.30;99.90;;;;;;5035285;28;20120;-27
2022/07/14 00:33:08;;;;;;;18.40;6.40;;;11.30;99.90;;;;;;5052940;28;20033;-28
2022/07/14 00:35:33;;;;;;;17.05;7.25;;;11.30;99.90;;;;;;5053923;28;20132;-27
2022/07/14 00:37:59;;;;;;;20.02;6.30;;;11.30;99.90;;;;;;5060291;28;20048;-27
2022/07/14 00:40:25;;;;;;;14.75;7.07;;;11.40;99.90;;;;;;5068368;28;20049;-27
2022/07/14 00:42:51;;;;;;;20.40;6.38;;;11.40;99.90;;;;;;5053352;28;20095;-27
2022/07/14 00:45:19;;;;;;;15.73;6.30;;;11.40;99.90;;;;;;5053794;28;20053;-27
2022/07/14 00:47:46;;;;;;;16.80;6.05;;;11.50;99.90;;;;;;5053868;28;20376;-27
2022/07/14 00:50:14;;;;;;;17.90;5.28;;;11.50;99.90;;;;;;5053307;28;20048;-27
2022/07/14 00:52:42;;;;;;;21.15;5.60;;;11.60;99.90;;;;;;5036328;28;20463;-27
2022/07/14 00:55:10;;;;;;;16.63;6.05;;;11.60;99.90;;;;;;5052665;28;20466;-27
2022/07/14 00:57:36;;;;;;;15.05;5.40;;;11.60;99.90;;;;;;5053883;28;20115;-28
2022/07/14 01:00:04;;;;;;;20.55;5.88;;;11.70;99.90;;;;;;5053013;28;20108;-27
2022/07/14 01:02:30;;;;;;;15.55;4.38;;;11.70;99.90;;;;;;5051519;28;20052;-28
2022/07/14 01:04:55;;;;;;;16.55;4.95;;;11.70;99.90;;;;;;5051714;28;20037;-27
2022/07/14 01:07:21;;;;;;;17.52;6.15;;;11.70;99.90;;;;;;5054502;28;20056;-28
2022/07/14 01:09:47;;;;;;;13.63;5.15;;;11.80;99.90;;;;;;5056195;28;20032;-27
2022/07/14 01:12:13;;;;;;;11.48;5.20;;;11.70;99.90;;;;;;5053128;28;20513;-27
2022/07/14 01:14:40;;;;;;;15.52;5.35;;;11.70;99.90;;;;;;5053393;28;20364;-28
2022/07/14 01:17:06;;;;;;;19.77;4.95;;;11.70;99.90;;;;;;5054248;28;20063;-27
2022/07/14 01:19:33;;;;;;;12.50;4.90;;;11.60;99.90;;;;;;5058243;28;20056;-28
2022/07/14 01:21:59;;;;;;;12.93;4.55;;;11.60;99.90;;;;;;5064835;28;20053;-28
2022/07/14 01:24:25;;;;;;;15.48;5.57;;;11.60;99.90;;;;;;5052400;28;20052;-27
2022/07/14 01:26:51;;;;;;;18.67;5.13;;;11.50;99.90;;;;;;5052958;28;20048;-28
2022/07/14 01:29:18;;;;;;;17.65;4.40;;;11.40;99.90;;;;;;5059452;28;20469;-27
2022/07/14 01:31:44;;;;;;;19.83;5.53;;;11.40;99.90;;;;;;5056419;28;20449;-28
2022/07/14 01:34:10;;;;;;;20.73;5.82;;;11.20;99.90;;;;;;5055730;28;20059;-27
2022/07/14 01:36:36;;;;;;;14.98;5.82;;;11.10;97.40;;;;;;5056789;28;20494;-28
2022/07/14 01:39:03;;;;;;;17.67;4.95;;;11.00;66.30;;;;;;5057646;28;20106;-27
2022/07/14 01:41:29;;;;;;;16.40;5.72;;;10.90;45.00;;;;;;5040084;28;20132;-27
2022/07/14 01:43:55;;;;;;;18.60;6.40;;;10.80;38.30;;;;;;5057110;28;20047;-27
2022/07/14 01:46:21;;;;;;;25.10;5.90;;;10.70;25.90;;;;;;5056549;28;20116;-27
2022/07/14 01:48:47;;;;;;;14.27;5.65;;;10.60;29.70;;;;;;5057037;28;20045;-27
2022/07/14 01:51:13;;;;;;;14.77;5.57;;;10.40;21.80;;;;;;5056043;28;20052;-27
2022/07/14 01:53:41;;;;;;;17.73;5.65;;;10.40;17.70;;;;;;5056907;28;20049;-27
2022/07/14 01:56:08;;;;;;;21.67;5.57;;;10.30;39.30;;;;;;5055128;28;20126;-27
2022/07/14 01:58:34;;;;;;;18.75;5.97;;;10.30;62.30;;;;;;5056830;28;20053;-27
2022/07/14 02:03:45;;;;;;;17.33;5.43;;;10.20;99.90;;;;;;5054731;28;20064;-27
2022/07/14 02:06:11;;;;;;;14.02;6.50;;;10.20;99.90;;;;;;5055749;28;20053;-27
2022/07/14 02:08:37;;;;;;;17.58;6.10;;;10.20;99.90;;;;;;5059760;28;20041;-27
2022/07/14 02:13:47;;;;;;;20.42;6.60;;;10.20;99.90;;;;;;5056564;28;20090;-28
2022/07/14 02:16:13;;;;;;;19.08;6.70;;;10.10;99.90;;;;;;5057325;28;20048;-27
2022/07/14 02:18:38;;;;;;;18.60;6.95;;;10.10;99.90;;;;;;5057117;28;20049;-27
2022/07/14 02:21:04;;;;;;;18.02;6.45;;;10.00;99.90;;;;;;5072439;28;20127;-27
2022/07/14 02:23:30;;;;;;;22.55;6.07;;;10.00;99.90;;;;;;5054925;28;20056;-27
2022/07/14 02:25:56;;;;;;;25.52;6.93;;;10.00;99.90;;;;;;5054061;28;20049;-27
2022/07/14 02:28:22;;;;;;;26.23;7.38;;;9.90;99.90;;;;;;5053982;28;20072;-27
2022/07/14 02:30:48;;;;;;;16.27;6.45;;;9.80;99.90;;;;;;5055837;28;20120;-27
2022/07/14 02:33:14;;;;;;;14.13;5.90;;;9.70;99.90;;;;;;5055707;28;20131;-27
2022/07/14 02:35:39;;;;;;;16.23;6.57;;;9.70;99.90;;;;;;5055353;28;20045;-28
2022/07/14 02:38:05;;;;;;;18.90;6.50;;;9.60;99.90;;;;;;5056673;28;20044;-27
2022/07/14 02:40:32;;;;;;;19.45;7.38;;;9.60;99.90;;;;;;5056174;28;20378;-27
2022/07/14 02:42:57;;;;;;;21.60;8.70;;;9.60;99.90;;;;;;5055275;28;20049;-28
2022/07/14 02:45:23;;;;;;;15.40;7.95;;;9.60;99.90;;;;;;5055540;28;20505;-27
2022/07/14 02:47:49;;;;;;;19.55;8.90;;;9.50;99.90;;;;;;5056479;28;20045;-27
2022/07/14 02:50:14;;;;;;;21.85;7.20;;;9.60;99.90;;;;;;5055906;28;20044;-27
2022/07/14 02:52:40;;;;;;;20.42;8.68;;;9.50;99.90;;;;;;5055751;28;20055;-29
2022/07/14 02:55:06;;;;;;;21.33;7.43;;;9.50;99.90;;;;;;5055740;28;20041;-27
2022/07/14 02:57:32;;;;;;;19.95;7.35;;;9.50;99.90;;;;;;5056598;28;20061;-27
2022/07/14 02:59:58;;;;;;;16.55;6.18;;;9.40;99.90;;;;;;5055118;28;20045;-27
2022/07/14 03:02:24;;;;;;;13.95;6.03;;;9.50;99.90;;;;;;5055628;28;20052;-27
2022/07/14 03:04:50;;;;;;;13.43;6.10;;;9.30;99.90;;;;;;5054922;28;20087;-27
2022/07/14 03:07:16;;;;;;;19.65;6.82;;;9.40;99.90;;;;;;5067868;28;20044;-28
2022/07/14 03:09:42;;;;;;;17.60;6.70;;;9.40;99.90;;;;;;5063264;28;20049;-27
2022/07/14 03:12:08;;;;;;;14.57;6.38;;;9.40;99.90;;;;;;5054368;28;20056;-28
2022/07/14 03:14:33;;;;;;;25.10;8.77;;;9.40;99.90;;;;;;5055324;28;20092;-27
2022/07/14 03:16:59;;;;;;;14.55;7.63;;;9.30;99.90;;;;;;5039447;28;20053;-27
2022/07/14 03:19:25;;;;;;;14.02;6.55;;;9.30;99.90;;;;;;5056511;28;20056;-27
2022/07/14 03:21:51;;;;;;;16.60;7.75;;;9.20;99.90;;;;;;5053207;28;20475;-27
2022/07/14 03:24:17;;;;;;;14.73;6.85;;;9.10;99.90;;;;;;5055174;28;20045;-27
2022/07/14 03:26:43;;;;;;;19.55;7.07;;;9.10;99.90;;;;;;5054324;28;20048;-27
2022/07/14 03:29:09;;;;;;;15.65;6.72;;;9.10;99.90;;;;;;5054759;28;20053;-27
2022/07/14 03:31:34;;;;;;;17.48;6.78;;;9.10;99.90;;;;;;5054618;28;20037;-27
2022/07/14 03:34:00;;;;;;;12.65;6.50;;;9.10;99.90;;;;;;5054242;28;20083;-27
2022/07/14 03:36:26;;;;;;;18.00;6.53;;;9.10;99.90;;;;;;5054496;28;20059;-27
2022/07/14 03:38:52;;;;;;;15.07;3.65;;;9.00;99.90;;;;;;5053736;28;20049;-27
2022/07/14 03:41:18;;;;;;;493.77;13.27;;;9.00;99.90;;;;;;5054930;28;20128;-27
2022/07/14 03:43:46;;;;;;;536.53;13.35;;;8.90;99.90;;;;;;5054432;28;20049;-27
2022/07/14 03:46:12;;;;;;;11.93;2.45;;;8.80;99.90;;;;;;5055550;28;20098;-27
2022/07/14 03:48:39;;;;;;;7.22;2.20;;;8.70;99.90;;;;;;5054055;28;20041;-27
2022/07/14 03:51:05;;;;;;;10.25;4.13;;;8.70;99.90;;;;;;5052987;28;20053;-27
2022/07/14 03:53:31;;;;;;;13.50;5.07;;;8.80;99.90;;;;;;5053511;28;20110;-27
2022/07/14 03:55:58;;;;;;;10.43;4.75;;;8.90;99.90;;;;;;5055040;28;20498;-27
2022/07/14 03:58:24;;;;;;;11.32;5.07;;;9.00;99.90;;;;;;5053071;28;20053;-27
2022/07/14 04:00:50;;;;;;;18.17;5.22;;;9.10;99.90;;;;;;5054239;28;20384;-27
2022/07/14 04:03:16;;;;;;;21.35;5.90;;;9.10;99.90;;;;;;5053940;28;20491;-27
2022/07/14 04:05:42;;;;;;;12.57;5.18;;;9.20;99.90;;;;;;5055128;28;20095;-27
2022/07/14 04:08:08;;;;;;;17.75;5.60;;;9.30;1.00;;;;;;5053992;28;20053;-27
2022/07/14 04:10:34;;;;;;;10.65;5.10;;;9.30;99.90;;;;;;5058113;28;20518;-28
2022/07/14 04:13:00;;;;;;;13.40;5.68;;;9.20;99.90;;;;;;5037474;28;20045;-26
2022/07/14 04:15:27;;;;;;;16.02;5.07;;;9.30;99.90;;;;;;5053354;28;20045;-27
2022/07/14 04:17:53;;;;;;;9.48;5.45;;;9.30;1.00;;;;;;5054037;28;20075;-27
2022/07/14 04:20:19;;;;;;;10.93;5.18;;;9.40;1.00;;;;;;5062935;28;20051;-27
2022/07/14 04:22:45;;;;;;;20.42;6.60;;;9.50;1.00;;;;;;5057873;28;20044;-27
2022/07/14 04:25:12;;;;;;;13.07;4.90;;;9.50;1.00;;;;;;5053800;28;20399;-27
2022/07/14 04:27:39;;;;;;;13.68;5.72;;;9.60;1.00;;;;;;5036811;28;20049;-27
2022/07/14 04:30:07;;;;;;;11.60;6.25;;;9.60;1.00;;;;;;5053299;28;20159;-27
2022/07/14 04:32:33;;;;;;;13.73;6.25;;;9.70;1.00;;;;;;5052917;28;20486;-28
2022/07/14 04:34:59;;;;;;;15.23;6.90;;;9.70;1.00;;;;;;5053319;28;20120;-27
2022/07/14 04:37:26;;;;;;;14.82;6.10;;;9.70;1.00;;;;;;5052824;28;20128;-27
2022/07/14 04:39:54;;;;;;;13.75;5.40;;;9.90;1.00;;;;;;5053579;28;20477;-28
2022/07/14 04:42:21;;;;;;;16.75;5.25;;;9.90;1.00;;;;;;5053336;28;20052;-27
2022/07/14 04:44:48;;;;;;;11.38;4.72;;;9.90;20.40;;;;;;5054652;28;20080;-27
2022/07/14 04:47:14;;;;;;;10.20;4.32;;;10.00;99.90;;;;;;5054064;28;20383;-27
2022/07/14 04:52:25;;;;;;;16.58;4.75;;;10.20;99.90;;;;;;5054179;28;20056;-27
2022/07/14 04:54:51;;;;;;;15.63;4.68;;;10.30;99.90;;;;;;5052684;28;20045;-27
2022/07/14 04:57:16;;;;;;;16.38;6.00;;;10.40;99.90;;;;;;5053122;28;20037;-27
2022/07/14 04:59:42;;;;;;;12.52;5.50;;;10.60;99.90;;;;;;5052919;28;20497;-27
2022/07/14 05:02:08;;;;;;;25.42;6.05;;;10.70;99.90;;;;;;5054321;28;20053;-27
2022/07/14 05:04:34;;;;;;;19.52;5.97;;;11.00;99.90;;;;;;5051752;28;20074;-27
2022/07/14 05:07:00;;;;;;;13.57;6.03;;;11.20;1.00;;;;;;5053029;28;20052;-27
2022/07/14 05:09:26;;;;;;;12.27;6.03;;;11.40;99.90;;;;;;5053090;28;20077;-27
2022/07/14 05:11:55;;;;;;;19.80;5.95;;;11.60;99.90;;;;;;5052663;28;20041;-27
2022/07/14 05:14:20;;;;;;;11.10;4.43;;;11.70;1.00;;;;;;5056956;28;20037;-27
2022/07/14 05:16:48;;;;;;;16.70;4.35;;;11.90;1.00;;;;;;5053493;28;20394;-27
2022/07/14 05:19:15;;;;;;;12.65;3.85;;;12.30;1.00;;;;;;5053240;28;20065;-27
2022/07/14 05:21:41;;;;;;;10.98;3.65;;;13.10;1.00;;;;;;5053490;28;20057;-30
2022/07/14 05:24:07;;;;;;;9.18;3.13;;;13.90;60.10;;;;;;5072099;28;20052;-28
2022/07/14 05:26:33;;;;;;;13.80;3.42;;;14.80;1.00;;;;;;5056404;28;20045;-27
2022/07/14 05:28:58;;;;;;;15.93;4.10;;;15.50;1.00;;;;;;5050873;28;20086;-26
2022/07/14 05:31:24;;;;;;;10.45;3.17;;;16.00;99.90;;;;;;5052290;28;20044;-27
2022/07/14 05:33:50;;;;;;;8.57;3.13;;;16.50;1.00;;;;;;5052855;28;20065;-27
2022/07/14 05:36:16;;;;;;;20.63;4.68;;;17.00;99.90;;;;;;5052761;28;20076;-26
2022/07/14 05:38:42;;;;;;;8.00;2.55;;;17.10;74.90;;;;;;5052425;28;20048;-27
2022/07/14 05:41:08;;;;;;;10.52;2.25;;;17.30;1.00;;;;;;5052055;28;20374;-27
2022/07/14 05:43:33;;;;;;;5.90;2.22;;;17.50;99.90;;;;;;5052577;28;20044;-27
2022/07/14 05:46:07;;;;;;;9.75;2.10;;;17.60;99.90;;;;;;5052330;28;20051;-26
2022/07/14 05:48:33;;;;;;;7.82;2.42;;;17.70;1.00;;;;;;5052248;28;20056;-26
2022/07/14 05:51:03;;;;;;;13.30;1.92;;;17.90;1.00;;;;;;5052594;28;20048;-26
2022/07/14 05:53:29;;;;;;;7.07;2.03;;;17.80;1.00;;;;;;5052625;28;20052;-26
2022/07/14 05:55:55;;;;;;;7.38;1.85;;;17.90;1.00;;;;;;5064533;28;20036;-26
2022/07/14 05:58:21;;;;;;;8.85;1.25;;;18.00;99.90;;;;;;5072496;28;20040;-26
2022/07/14 06:00:47;;;;;;;5.75;2.42;;;18.00;99.90;;;;;;5063303;28;20130;-26
2022/07/14 06:03:13;;;;;;;8.20;1.92;;;18.00;99.90;;;;;;5052933;28;20510;-26
2022/07/14 06:05:39;;;;;;;6.35;2.00;;;18.20;99.90;;;;;;5063411;28;20044;-26
2022/07/14 06:08:04;;;;;;;5.15;1.60;;;18.20;99.90;;;;;;5053614;28;20047;-27
2022/07/14 06:10:30;;;;;;;10.18;1.80;;;18.30;99.90;;;;;;5054213;28;20135;-26
2022/07/14 06:12:56;;;;;;;7.50;1.52;;;18.20;99.90;;;;;;5053521;28;20049;-26
2022/07/14 06:15:22;;;;;;;7.47;1.55;;;18.20;99.90;;;;;;5052785;28;20033;-26
2022/07/14 06:17:47;;;;;;;7.13;1.52;;;18.20;99.90;;;;;;5055644;28;20458;-26
2022/07/14 06:20:13;;;;;;;6.72;1.70;;;18.40;94.60;;;;;;5056465;28;20044;-27
2022/07/14 06:22:39;;;;;;;7.97;1.45;;;18.60;93.00;;;;;;5037588;28;20072;-26
2022/07/14 06:25:05;;;;;;;6.78;1.08;;;18.60;44.20;;;;;;5056207;28;20036;-26
2022/07/14 06:27:31;;;;;;;6.88;1.02;;;18.80;32.70;;;;;;5056209;28;20126;-26
2022/07/14 06:29:57;;;;;;;10.35;1.88;;;18.90;1.00;;;;;;5056083;28;20398;-27
2022/07/14 06:32:23;;;;;;;8.32;1.27;;;18.80;48.50;;;;;;5056225;28;20101;-27
2022/07/14 06:34:49;;;;;;;8.02;1.35;;;18.90;50.30;;;;;;5055573;28;20049;-27
2022/07/14 06:37:15;;;;;;;4.13;0.82;;;19.10;1.00;;;;;;5055966;28;20052;-27
2022/07/14 06:39:41;;;;;;;5.90;1.10;;;19.00;1.00;;;;;;5057672;28;20099;-27
2022/07/14 06:42:07;;;;;;;5.68;1.20;;;19.00;1.00;;;;;;5055526;28;20049;-27
2022/07/14 06:44:33;;;;;;;9.63;1.60;;;19.00;1.00;;;;;;5055988;28;20070;-27
2022/07/14 06:46:59;;;;;;;6.95;0.93;;;19.20;1.00;;;;;;5056169;28;20067;-28
2022/07/14 06:49:25;;;;;;;11.05;1.50;;;19.30;1.00;;;;;;5055413;28;20098;-27
2022/07/14 06:51:51;;;;;;;8.20;1.63;;;19.20;1.00;;;;;;5066378;28;20049;-26
2022/07/14 06:54:17;;;;;;;7.60;1.10;;;19.40;1.00;;;;;;5037683;28;20125;-26
2022/07/14 06:56:43;;;;;;;5.65;1.10;;;19.40;99.90;;;;;;5062216;28;20079;-26
2022/07/14 06:59:08;;;;;;;10.80;1.75;;;19.40;99.90;;;;;;5075603;28;20094;-26
2022/07/14 07:01:34;;;;;;;5.38;0.73;;;19.40;99.90;;;;;;5072634;28;20048;-26
2022/07/14 07:04:00;;;;;;;5.10;0.50;;;19.00;99.90;;;;;;5059061;28;20122;-27
2022/07/14 07:06:44;;;;;;;4.25;0.60;;;18.30;99.90;;;;;;5061003;28;20041;-26
2022/07/14 07:09:15;;;;;;;5.22;0.73;;;17.90;1.00;;;;;;5062075;28;20052;-27
2022/07/14 07:11:43;;;;;;;3.72;0.43;;;18.10;1.00;;;;;;5071793;28;20113;-26
2022/07/14 07:14:09;;;;;;;3.33;0.90;;;17.90;1.00;;;;;;5072157;28;20474;-26
2022/07/14 07:16:35;;;;;;;3.72;0.80;;;18.30;1.00;;;;;;5056236;28;20131;-27
2022/07/14 07:19:00;;;;;;;6.38;0.85;;;18.40;1.00;;;;;;5072437;28;20056;-27
2022/07/14 07:21:26;;;;;;;5.78;0.90;;;18.50;99.90;;;;;;5057450;28;20052;-26
2022/07/14 07:23:54;;;;;;;3.50;0.63;;;18.60;99.90;;;;;;5076043;28;20036;-27
2022/07/14 07:26:22;;;;;;;4.40;0.45;;;18.40;99.90;;;;;;5071948;28;20045;-27
2022/07/14 07:28:49;;;;;;;3.50;0.80;;;18.20;99.90;;;;;;5053766;28;20083;-26
2022/07/14 07:31:15;;;;;;;4.25;0.55;;;18.40;99.90;;;;;;5054733;28;20057;-27
2022/07/14 07:33:40;;;;;;;3.17;0.40;;;18.90;99.90;;;;;;5053990;28;20037;-26
2022/07/14 07:36:06;;;;;;;5.18;0.55;;;19.40;1.00;;;;;;5037889;28;20183;-27
2022/07/14 07:38:32;;;;;;;2.90;0.68;;;19.90;1.00;;;;;;5056535;28;20052;-26
2022/07/14 07:41:00;;;;;;;4.10;0.40;;;19.80;1.00;;;;;;5054003;28;20092;-26
2022/07/14 07:43:26;;;;;;;3.67;0.88;;;19.30;1.00;;;;;;5054898;28;20072;-26
2022/07/14 07:45:53;;;;;;;4.22;0.68;;;18.90;1.00;;;;;;5054889;28;20475;-27
2022/07/14 07:48:19;;;;;;;1.63;0.30;;;18.80;1.00;;;;;;5055137;28;20056;-26
2022/07/14 07:50:45;;;;;;;5.28;1.13;;;18.90;1.00;;;;;;5052946;28;20049;-27
2022/07/14 07:53:11;;;;;;;4.72;0.47;;;18.90;19.90;;;;;;5059363;28;20128;-27
2022/07/14 07:55:38;;;;;;;10.80;0.70;;;18.90;12.30;;;;;;5074625;28;20055;-26
2022/07/14 07:58:04;;;;;;;3.63;0.40;;;19.10;96.90;;;;;;5063979;28;20222;-28
2022/07/14 08:00:30;;;;;;;3.42;0.45;;;19.40;53.60;;;;;;5036967;28;20049;-27
2022/07/14 08:02:57;;;;;;;6.47;0.40;;;19.70;1.00;;;;;;5038223;28;20047;-27
2022/07/14 08:05:27;;;;;;;5.03;0.90;;;19.50;1.00;;;;;;5057750;28;20379;-28
2022/07/14 08:07:53;;;;;;;2.60;0.30;;;19.10;1.00;;;;;;5064096;28;20041;-27
2022/07/14 08:10:19;;;;;;;3.20;0.73;;;18.90;27.50;;;;;;5075133;28;20040;-27
2022/07/14 08:12:45;;;;;;;3.40;0.52;;;19.00;1.00;;;;;;5055601;28;20418;-27
2022/07/14 08:15:11;;;;;;;4.35;0.50;;;19.10;1.00;;;;;;5052980;28;20041;-27
2022/07/14 08:17:37;;;;;;;5.95;1.13;;;19.20;1.00;;;;;;5053932;28;20048;-27
2022/07/14 08:20:04;;;;;;;4.47;0.60;;;19.00;99.90;;;;;;5053552;28;20064;-27
2022/07/14 08:22:30;;;;;;;4.85;0.73;;;18.90;99.90;;;;;;5036673;28;20053;-27
2022/07/14 08:24:56;;;;;;;5.50;0.68;;;18.60;99.90;;;;;;5071741;28;20052;-27
2022/07/14 08:27:22;;;;;;;10.50;0.50;;;18.70;99.90;;;;;;5074021;28;20429;-27
2022/07/14 08:29:49;;;;;;;9.13;0.68;;;18.90;99.90;;;;;;5073967;28;20402;-27
2022/07/14 08:32:14;;;;;;;3.45;0.77;;;19.20;99.90;;;;;;5073895;28;20569;-27
2022/07/14 08:34:41;;;;;;;5.35;0.93;;;19.60;99.90;;;;;;5053812;28;20125;-27
2022/07/14 08:37:07;;;;;;;4.63;1.05;;;19.90;99.90;;;;;;5053973;28;20076;-27
2022/07/14 08:39:33;;;;;;;3.15;0.40;;;19.90;79.00;;;;;;5053003;28;20053;-27
2022/07/14 08:42:02;;;;;;;2.97;0.40;;;19.80;1.00;;;;;;5036352;28;20052;-27
2022/07/14 08:44:29;;;;;;;3.92;0.60;;;19.80;1.00;;;;;;5056071;28;20048;-27
2022/07/14 08:46:56;;;;;;;3.70;0.50;;;19.50;1.00;;;;;;5055239;28;20045;-27
2022/07/14 08:49:22;;;;;;;6.78;0.57;;;19.50;1.00;;;;;;5068835;28;20052;-27
2022/07/14 08:51:49;;;;;;;3.40;0.30;;;19.40;1.00;;;;;;5071483;28;20402;-27
2022/07/14 08:54:16;;;;;;;3.13;0.50;;;19.60;1.00;;;;;;5053601;28;20088;-27
2022/07/14 08:56:42;;;;;;;3.13;0.43;;;20.10;99.90;;;;;;5053792;28;20053;-27
2022/07/14 08:59:09;;;;;;;2.60;0.40;;;20.50;99.90;;;;;;5054766;28;20126;-27
2022/07/14 09:01:36;;;;;;;2.08;0.38;;;20.50;99.90;;;;;;5052309;28;20126;-27
2022/07/14 09:04:02;;;;;;;4.82;0.68;;;20.50;99.90;;;;;;5052247;28;20115;-28
2022/07/14 09:06:53;;;;;;;1.90;0.20;;;20.50;99.90;;;;;;5053581;28;20045;-27
2022/07/14 09:09:25;;;;;;;1.75;0.30;;;20.10;99.90;;;;;;5053567;28;20049;-27
2022/07/14 09:12:04;;;;;;;2.10;0.30;;;19.60;99.90;;;;;;5053508;28;20124;-28
2022/07/14 09:17:25;;;;;;;3.95;0.50;;;19.40;1.00;;;;;;5043456;28;20422;-27
2022/07/14 09:20:03;;;;;;;4.15;0.63;;;19.50;1.00;;;;;;5054000;28;20107;-28
2022/07/14 09:22:32;;;;;;;3.72;0.80;;;19.80;1.00;;;;;;5053358;28;20064;-27
2022/07/14 09:24:58;;;;;;;3.47;0.70;;;19.80;1.00;;;;;;5065356;28;20053;-27
2022/07/14 09:27:25;;;;;;;1.80;0.60;;;19.70;1.00;;;;;;5053337;28;20091;-27
2022/07/14 09:29:55;;;;;;;7.70;0.60;;;19.50;1.00;;;;;;5053487;28;20131;-27
2022/07/14 09:32:40;;;;;;;5.18;0.60;;;19.90;1.00;;;;;;5055406;28;20041;-28
2022/07/14 09:35:06;;;;;;;3.17;0.40;;;20.30;99.90;;;;;;5053188;28;20051;-27
2022/07/14 09:37:32;;;;;;;3.65;0.52;;;20.20;1.00;;;;;;5053548;28;20128;-28
2022/07/14 09:39:59;;;;;;;5.38;0.30;;;20.30;1.00;;;;;;5054061;28;20049;-28
2022/07/14 09:42:46;;;;;;;3.15;0.40;;;21.10;99.90;;;;;;5054312;28;20158;-28
2022/07/14 09:45:14;;;;;;;3.42;0.80;;;21.80;93.60;;;;;;5055480;28;20479;-28
2022/07/14 09:47:52;;;;;;;2.10;0.38;;;21.80;99.90;;;;;;5066248;28;20402;-28
2022/07/14 09:50:54;;;;;;;2.47;0.30;;;21.70;1.00;;;;;;5071402;28;20055;-27
2022/07/14 09:53:34;;;;;;;2.55;0.38;;;21.20;1.00;;;;;;5056905;28;20057;-28
2022/07/14 09:56:07;;;;;;;4.53;0.38;;;20.70;39.20;;;;;;5056564;28;20395;-27
2022/07/14 09:58:44;;;;;;;3.30;0.68;;;20.70;1.00;;;;;;5057374;28;20151;-28
2022/07/14 10:01:20;;;;;;;2.13;0.30;;;20.40;1.00;;;;;;5056793;28;20053;-28
2022/07/14 10:03:51;;;;;;;4.25;1.17;;;20.40;1.00;;;;;;5057320;28;20096;-28
2022/07/14 10:06:17;;;;;;;1.98;0.20;;;20.30;1.00;;;;;;5068584;28;20040;-29
2022/07/14 10:08:48;;;;;;;2.35;0.47;;;20.50;9.60;;;;;;5062748;28;20053;-29
2022/07/14 10:11:14;;;;;;;1.30;0.60;;;20.70;99.90;;;;;;5065944;28;20044;-29
2022/07/14 10:13:40;;;;;;;2.20;0.50;;;20.90;1.00;;;;;;5068635;28;20047;-29
2022/07/14 10:16:06;;;;;;;4.57;0.50;;;20.90;1.00;;;;;;5060720;28;20072;-29
2022/07/14 10:18:33;;;;;;;3.60;0.50;;;20.70;1.00;;;;;;5055718;28;20053;-28
2022/07/14 10:21:00;;;;;;;1.23;0.30;;;20.80;1.00;;;;;;5056385;28;20053;-28
2022/07/14 10:23:29;;;;;;;2.88;0.43;;;21.00;1.00;;;;;;5056456;28;20049;-28
2022/07/14 10:25:57;;;;;;;2.25;0.40;;;21.30;1.00;;;;;;5056683;28;20052;-32
2022/07/14 10:28:24;;;;;;;2.22;0.52;;;21.30;1.00;;;;;;5056365;28;20055;-28
2022/07/14 10:30:58;;;;;;;3.45;0.60;;;21.10;1.00;;;;;;5056315;28;20045;-28
2022/07/14 10:33:47;;;;;;;5.53;0.50;;;20.60;1.00;;;;;;5056157;28;20088;-28
2022/07/14 10:36:22;;;;;;;3.47;0.70;;;20.30;1.00;;;;;;5059634;28;20436;-29
2022/07/14 10:38:51;;;;;;;3.05;0.75;;;19.90;1.00;;;;;;5061778;28;20037;-28
2022/07/14 10:41:46;;;;;;;2.58;0.50;;;19.60;36.80;;;;;;5064173;28;20040;-28
2022/07/14 10:44:21;;;;;;;5.65;1.10;;;19.40;13.60;;;;;;5076897;28;20119;-28
2022/07/14 10:46:49;;;;;;;2.17;0.50;;;19.20;99.90;;;;;;5057803;28;20395;-28
2022/07/14 10:49:17;;;;;;;4.63;0.50;;;19.20;99.90;;;;;;5055966;28;20053;-28
2022/07/14 10:51:49;;;;;;;2.40;0.40;;;19.20;99.90;;;;;;5055953;28;20045;-28
2022/07/14 10:54:22;;;;;;;4.57;0.40;;;19.30;1.00;;;;;;5055828;28;20041;-28
2022/07/14 10:56:49;;;;;;;3.22;0.57;;;19.30;99.90;;;;;;5056064;28;20055;-28
2022/07/14 10:59:27;;;;;;;2.65;0.52;;;19.30;99.90;;;;;;5064381;28;20568;-28
2022/07/14 11:02:13;;;;;;;4.53;0.50;;;19.30;99.90;;;;;;5055237;28;20064;-28
2022/07/14 11:05:12;;;;;;;3.45;0.60;;;19.30;99.90;;;;;;5054734;28;20041;-28
2022/07/14 11:07:52;;;;;;;2.60;0.57;;;19.20;1.00;;;;;;5055301;28;20048;-28
2022/07/14 11:10:21;;;;;;;3.45;0.73;;;19.40;1.00;;;;;;5056783;28;20090;-28
2022/07/14 11:13:05;;;;;;;3.40;0.50;;;19.40;99.90;;;;;;5055526;28;20071;-28
2022/07/14 11:15:42;;;;;;;2.35;0.32;;;19.50;99.90;;;;;;5055974;28;20348;-28
2022/07/14 11:18:17;;;;;;;5.15;0.40;;;19.60;99.90;;;;;;5055136;28;20069;-28
2022/07/14 11:21:07;;;;;;;3.63;0.50;;;19.90;99.90;;;;;;5057540;28;20053;-28
2022/07/14 11:23:39;;;;;;;7.20;0.50;;;20.20;99.90;;;;;;5055620;28;20121;-29
2022/07/14 11:26:26;;;;;;;3.97;0.50;;;20.70;99.90;;;;;;5055342;28;20053;-29
2022/07/14 11:28:52;;;;;;;4.80;0.85;;;21.20;6.90;;;;;;5055441;28;20088;-28
2022/07/14 11:31:22;;;;;;;2.50;0.40;;;21.30;1.00;;;;;;5055807;28;20045;-28
2022/07/14 11:36:59;;;;;;;1.08;0.20;;;21.40;1.00;;;;;;5055184;28;20064;-28
2022/07/14 11:39:31;;;;;;;5.03;0.70;;;22.00;1.00;;;;;;5055629;28;20138;-29
2022/07/14 11:42:12;;;;;;;4.00;0.68;;;22.40;99.90;;;;;;5054330;28;20162;-29
2022/07/14 11:44:38;;;;;;;6.15;0.60;;;22.50;99.90;;;;;;5053971;28;20052;-28
2022/07/14 11:47:26;;;;;;;3.20;0.45;;;22.20;99.90;;;;;;5053895;28;20072;-28
2022/07/14 11:50:00;;;;;;;4.20;0.60;;;21.70;99.90;;;;;;5054927;28;20107;-28
2022/07/14 11:52:30;;;;;;;2.97;0.50;;;21.20;3.20;;;;;;5054378;28;20136;-28
2022/07/14 11:54:58;;;;;;;1.88;0.75;;;20.90;99.90;;;;;;5054630;28;20095;-28
2022/07/14 11:57:24;;;;;;;4.80;0.68;;;20.90;99.90;;;;;;5054938;28;20106;-28
2022/07/14 11:59:50;;;;;;;6.85;0.77;;;20.90;1.00;;;;;;5054675;28;20479;-28
2022/07/14 12:02:18;;;;;;;5.18;1.13;;;20.80;94.60;;;;;;5054364;28;20047;-28
2022/07/14 12:04:56;;;;;;;4.93;0.55;;;21.10;99.90;;;;;;5037274;28;20056;-28
2022/07/14 12:07:26;;;;;;;4.68;0.80;;;21.40;99.90;;;;;;5053512;28;20041;-29
2022/07/14 12:09:53;;;;;;;7.78;0.98;;;21.40;99.90;;;;;;5053720;28;20052;-28
2022/07/14 12:12:23;;;;;;;3.50;0.63;;;21.30;99.90;;;;;;5054021;28;20111;-29
2022/07/14 12:14:53;;;;;;;3.03;0.50;;;21.10;1.00;;;;;;5054373;28;20221;-28
2022/07/14 12:17:21;;;;;;;3.20;0.50;;;20.80;1.00;;;;;;5053415;28;20139;-28
2022/07/14 12:19:48;;;;;;;5.57;0.77;;;20.90;1.00;;;;;;5054893;28;20471;-28
2022/07/14 12:22:15;;;;;;;2.28;0.40;;;21.20;99.90;;;;;;5053101;28;20541;-28
2022/07/14 12:24:41;;;;;;;5.18;0.57;;;21.50;99.90;;;;;;5054624;28;20401;-28
2022/07/14 12:27:09;;;;;;;4.18;0.82;;;21.30;99.90;;;;;;5053008;28;20487;-28
2022/07/14 12:29:44;;;;;;;3.10;0.60;;;20.90;99.90;;;;;;5052920;28;20048;-29
2022/07/14 12:32:10;;;;;;;7.20;1.50;;;20.50;99.90;;;;;;5053485;28;20050;-28
2022/07/14 12:34:37;;;;;;;4.63;0.70;;;20.20;99.90;;;;;;5054096;28;20442;-28
2022/07/14 12:37:04;;;;;;;3.65;0.47;;;20.50;19.10;;;;;;5052438;28;20056;-28
2022/07/14 12:39:31;;;;;;;1.23;0.30;;;21.10;99.90;;;;;;5053000;28;20049;-28
2022/07/14 12:41:59;;;;;;;3.00;0.50;;;21.60;1.00;;;;;;5052989;28;20049;-30
2022/07/14 12:44:24;;;;;;;4.95;0.70;;;21.90;1.00;;;;;;5052896;28;20438;-29
2022/07/14 12:47:11;;;;;;;2.15;0.65;;;22.10;99.90;;;;;;5054667;28;20106;-29
2022/07/14 12:49:46;;;;;;;4.50;0.60;;;22.40;99.90;;;;;;5053811;28;20045;-28
2022/07/14 12:52:14;;;;;;;3.08;0.35;;;21.90;99.90;;;;;;5053781;28;20123;-28
2022/07/14 12:54:40;;;;;;;3.65;0.80;;;21.50;99.90;;;;;;5051644;28;20119;-28
2022/07/14 12:57:07;;;;;;;11.38;0.90;;;21.00;1.00;;;;;;5053184;28;20510;-28
2022/07/14 12:59:35;;;;;;;8.13;0.60;;;20.90;99.90;;;;;;5054807;28;20438;-28
2022/07/14 13:02:03;;;;;;;4.30;0.63;;;20.70;99.90;;;;;;5052377;28;20378;-28
2022/07/14 13:04:32;;;;;;;5.95;0.98;;;21.20;1.00;;;;;;5053592;28;20091;-29
2022/07/14 13:07:19;;;;;;;5.43;1.00;;;22.10;99.90;;;;;;5052207;28;20474;-28